createdAt,value
2019-03-19T00:02:05.371Z,101845.36
2019-03-19T00:04:34.735Z,101847.73
2019-03-19T00:07:04.337Z,101846.63
2019-03-19T00:09:34.277Z,101855.39
2019-03-19T00:12:03.874Z,101855.39
2019-03-19T00:14:33.540Z,101856.17
2019-03-19T00:17:03.516Z,101870.96
2019-03-19T00:19:32.906Z,101867.52
2019-03-19T00:22:02.313Z,101873.77
2019-03-19T00:24:31.978Z,101880.89
2019-03-19T00:27:01.504Z,101883.25
2019-03-19T00:29:49.980Z,101879.76
2019-03-19T00:32:19.505Z,101887.74
2019-03-19T00:34:49.165Z,101885.94
2019-03-19T00:37:18.757Z,101883.39
2019-03-19T00:39:48.383Z,101885.35
2019-03-19T00:42:17.760Z,101894.33
2019-03-19T00:44:47.406Z,101889.54
2019-03-19T00:47:16.786Z,101889.54
2019-03-19T00:49:46.438Z,101887.01
2019-03-19T00:52:15.808Z,101894.28
2019-03-19T00:54:45.498Z,101895.70
2019-03-19T00:57:14.932Z,101897.02
2019-03-19T00:59:44.879Z,101898.83
2019-03-19T01:02:14.546Z,101896.17
2019-03-19T01:04:43.898Z,101894.42
2019-03-19T01:07:13.494Z,101900.66
2019-03-19T01:09:42.875Z,101907.72
2019-03-19T01:12:12.532Z,101904.64
2019-03-19T01:14:41.889Z,101901.55
2019-03-19T01:17:11.535Z,101907.72
2019-03-19T01:19:40.911Z,101907.72
2019-03-19T01:22:10.858Z,101904.64
2019-03-19T01:24:40.836Z,101901.26
2019-03-19T01:27:10.193Z,101903.55
2019-03-19T01:29:39.883Z,101902.30
2019-03-19T01:32:09.525Z,101905.92
2019-03-19T01:34:38.899Z,101909.94
2019-03-19T01:37:08.625Z,101910.83
2019-03-19T01:39:38.270Z,101918.38
2019-03-19T01:42:07.754Z,101924.13
2019-03-19T01:44:37.372Z,101923.23
2019-03-19T01:47:06.975Z,101920.13
2019-03-19T01:49:36.877Z,101924.25
2019-03-19T01:52:06.527Z,101923.88
2019-03-19T01:54:35.988Z,101924.38
2019-03-19T01:57:05.340Z,101922.26
2019-03-19T01:59:34.859Z,101928.00
2019-03-19T02:02:04.220Z,101930.66
2019-03-19T02:04:33.898Z,101945.30
2019-03-19T02:07:03.810Z,101938.66
2019-03-19T02:09:33.516Z,101940.92
2019-03-19T02:12:02.878Z,101943.53
2019-03-19T02:14:32.249Z,101945.30
2019-03-19T02:17:01.736Z,101940.03
2019-03-19T02:19:31.104Z,101949.30
2019-03-19T02:22:00.764Z,101942.26
2019-03-19T02:24:30.762Z,101946.69
2019-03-19T02:27:00.150Z,101953.33
2019-03-19T02:29:29.789Z,101964.02
2019-03-19T02:31:59.211Z,101953.99
2019-03-19T02:34:28.852Z,101967.24
2019-03-19T02:36:58.220Z,101970.38
2019-03-19T02:39:27.876Z,101976.65
2019-03-19T02:41:57.275Z,101977.14
2019-03-19T02:44:26.897Z,101980.22
2019-03-19T02:46:56.340Z,101974.53
2019-03-19T02:49:26.328Z,101983.78
2019-03-19T02:51:55.886Z,101975.81
2019-03-19T02:54:25.364Z,101978.09
2019-03-19T02:56:55.003Z,101970.12
2019-03-19T02:59:25.690Z,101968.38
2019-03-19T03:01:55.303Z,101968.00
2019-03-19T03:04:25.279Z,101969.33
2019-03-19T03:06:54.947Z,101969.75
2019-03-19T03:09:25.554Z,101965.78
2019-03-19T03:11:56.722Z,101963.17
2019-03-19T03:14:46.329Z,101980.45
2019-03-19T03:17:36.142Z,101980.45
2019-03-19T03:20:24.850Z,101983.58
2019-03-19T03:22:54.231Z,101982.63
2019-03-19T03:25:23.574Z,101990.17
2019-03-19T03:27:53.110Z,101989.31
2019-03-19T03:33:25.730Z,101992.84
2019-03-19T03:35:55.263Z,101986.25
2019-03-19T03:38:25.502Z,101991.62
2019-03-19T03:40:55.155Z,101993.86
2019-03-19T03:43:25.471Z,101999.22
2019-03-19T03:45:55.079Z,102008.53
2019-03-19T03:48:25.392Z,102009.92
2019-03-19T03:50:54.754Z,102014.38
2019-03-19T03:53:25.542Z,102014.38
2019-03-19T03:55:55.267Z,102017.89
2019-03-19T03:58:25.569Z,102021.88
2019-03-19T04:00:55.231Z,102024.11
2019-03-19T04:03:25.492Z,102025.44
2019-03-19T04:05:55.135Z,102024.97
2019-03-19T04:08:25.529Z,102027.63
2019-03-19T04:10:55.184Z,102033.84
2019-03-19T04:13:25.488Z,102030.75
2019-03-19T04:15:55.149Z,102032.09
2019-03-19T04:18:25.584Z,102036.13
2019-03-19T04:20:55.236Z,102048.14
2019-03-19T04:26:21.334Z,102048.78
2019-03-19T04:31:31.528Z,102060.10
2019-03-19T04:34:01.170Z,102063.23
2019-03-19T04:36:30.835Z,102069.06
2019-03-19T04:39:00.444Z,102066.47
2019-03-19T04:41:31.586Z,102060.36
2019-03-19T04:44:01.253Z,102064.86
2019-03-19T04:46:30.898Z,102069.80
2019-03-19T04:49:19.642Z,102073.87
2019-03-19T04:51:49.321Z,102071.70
2019-03-19T04:54:18.684Z,102075.73
2019-03-19T04:56:48.385Z,102077.54
2019-03-19T04:59:17.735Z,102081.09
2019-03-19T05:01:47.361Z,102083.47
2019-03-19T05:04:16.727Z,102083.00
2019-03-19T05:06:46.389Z,102091.39
2019-03-19T05:09:15.760Z,102088.73
2019-03-19T05:11:45.691Z,102086.98
2019-03-19T05:14:34.981Z,102091.39
2019-03-19T05:17:04.479Z,102091.39
2019-03-19T05:19:33.855Z,102093.66
2019-03-19T05:22:03.522Z,102087.07
2019-03-19T05:24:32.886Z,102092.34
2019-03-19T05:27:03.943Z,102096.28
2019-03-19T05:29:33.755Z,102094.53
2019-03-19T05:32:03.123Z,102095.00
2019-03-19T05:34:33.055Z,102091.48
2019-03-19T05:37:02.642Z,102100.78
2019-03-19T05:39:32.012Z,102102.59
2019-03-19T05:42:01.608Z,102101.73
2019-03-19T05:44:31.283Z,102100.78
2019-03-19T05:47:00.642Z,102107.80
2019-03-19T05:49:30.018Z,102122.79
2019-03-19T05:51:59.693Z,102117.77
2019-03-19T05:54:29.048Z,102122.60
2019-03-19T05:56:58.624Z,102128.67
2019-03-19T05:59:28.324Z,102125.55
2019-03-19T06:01:57.697Z,102128.54
2019-03-19T06:04:27.339Z,102134.66
2019-03-19T06:06:57.063Z,102138.59
2019-03-19T06:09:26.761Z,102134.94
2019-03-19T06:11:56.138Z,102142.77
2019-03-19T06:14:26.401Z,102146.17
2019-03-19T06:16:55.777Z,102156.23
2019-03-19T06:19:26.039Z,102153.91
2019-03-19T06:21:57.365Z,102153.23
2019-03-19T06:24:27.023Z,102157.91
2019-03-19T06:26:56.733Z,102162.13
2019-03-19T06:29:26.392Z,102171.22
2019-03-19T06:31:55.756Z,102172.38
2019-03-19T06:34:25.999Z,102170.89
2019-03-19T06:36:55.357Z,102177.33
2019-03-19T06:39:26.184Z,102185.63
2019-03-19T06:41:55.836Z,102182.43
2019-03-19T06:44:26.299Z,102181.80
2019-03-19T06:46:55.834Z,102186.41
2019-03-19T06:49:26.077Z,102182.51
2019-03-19T06:51:56.252Z,102182.58
2019-03-19T06:54:26.887Z,102191.95
2019-03-19T06:56:56.258Z,102194.25
2019-03-19T06:59:32.039Z,102193.88
2019-03-19T07:02:01.706Z,102202.30
2019-03-19T07:04:31.371Z,102214.77
2019-03-19T07:07:00.969Z,102214.77
2019-03-19T07:09:30.319Z,102221.36
2019-03-19T07:12:01.560Z,102221.36
2019-03-19T07:14:31.346Z,102226.69
2019-03-19T07:19:54.815Z,102226.72
2019-03-19T07:22:24.190Z,102229.48
2019-03-19T07:24:53.831Z,102236.98
2019-03-19T07:27:23.211Z,102237.86
2019-03-19T07:33:27.321Z,102235.67
2019-03-19T07:35:57.034Z,102235.67
2019-03-19T07:38:26.412Z,102241.38
2019-03-19T07:40:56.006Z,102239.53
2019-03-19T07:43:26.261Z,102244.25
2019-03-19T07:45:55.629Z,102248.36
2019-03-19T07:48:26.657Z,102251.80
2019-03-19T07:50:56.045Z,102260.47
2019-03-19T07:53:26.607Z,102261.20
2019-03-19T07:55:56.016Z,102264.89
2019-03-19T07:58:32.987Z,102260.27
2019-03-19T08:01:16.681Z,102257.20
2019-03-19T08:04:05.756Z,102274.42
2019-03-19T08:06:35.399Z,102274.42
2019-03-19T08:09:25.412Z,102271.83
2019-03-19T08:11:55.074Z,102271.83
2019-03-19T08:14:24.438Z,102278.78
2019-03-19T08:16:54.012Z,102282.16
2019-03-19T08:19:23.388Z,102277.12
2019-03-19T08:21:53.315Z,102269.71
2019-03-19T08:24:24.285Z,102278.65
2019-03-19T08:26:53.658Z,102274.25
2019-03-19T08:29:42.499Z,102278.38
2019-03-19T08:32:12.110Z,102273.46
2019-03-19T08:34:41.752Z,102273.46
2019-03-19T08:37:11.225Z,102278.15
2019-03-19T08:39:40.857Z,102278.15
2019-03-19T08:42:10.228Z,102283.30
2019-03-19T08:44:39.578Z,102284.02
2019-03-19T08:47:09.191Z,102289.86
2019-03-19T08:52:17.856Z,102297.47
2019-03-19T08:54:47.326Z,102290.93
2019-03-19T08:57:16.669Z,102292.33
2019-03-19T08:59:46.176Z,102294.27
2019-03-19T09:02:15.525Z,102299.22
2019-03-19T09:04:45.208Z,102301.50
2019-03-19T09:07:14.609Z,102300.79
2019-03-19T09:13:18.304Z,102296.48
2019-03-19T09:15:47.672Z,102296.48
2019-03-19T09:18:17.038Z,102289.61
2019-03-19T09:20:46.606Z,102293.36
2019-03-19T09:23:15.973Z,102287.55
2019-03-19T09:25:45.442Z,102294.76
2019-03-19T09:28:14.806Z,102298.72
2019-03-19T09:30:44.188Z,102295.17
2019-03-19T09:33:13.639Z,102297.95
2019-03-19T09:35:43.240Z,102297.14
2019-03-19T09:38:12.615Z,102302.59
2019-03-19T09:40:41.968Z,102295.39
2019-03-19T09:43:11.525Z,102292.91
2019-03-19T09:45:40.872Z,102300.59
2019-03-19T09:48:10.250Z,102301.88
2019-03-19T09:50:40.139Z,102303.53
2019-03-19T09:53:09.643Z,102307.23
2019-03-19T09:55:39.003Z,102311.03
2019-03-19T09:58:08.378Z,102308.66
2019-03-19T10:00:57.067Z,102316.98
2019-03-19T10:03:26.446Z,102307.73
2019-03-19T10:05:55.793Z,102317.23
2019-03-19T10:08:25.169Z,102321.84
2019-03-19T10:10:54.526Z,102324.53
2019-03-19T10:13:23.894Z,102324.59
2019-03-19T10:15:53.255Z,102331.86
2019-03-19T10:18:22.630Z,102337.78
2019-03-19T10:20:51.989Z,102332.48
2019-03-19T10:23:21.353Z,102342.41
2019-03-19T10:25:50.715Z,102350.86
2019-03-19T10:28:27.828Z,102344.51
2019-03-19T10:30:58.818Z,102348.41
2019-03-19T10:33:28.473Z,102341.89
2019-03-19T10:35:57.842Z,102345.00
2019-03-19T10:38:27.216Z,102333.13
2019-03-19T10:40:56.816Z,102339.23
2019-03-19T10:43:26.191Z,102345.32
2019-03-19T10:45:55.805Z,102341.33
2019-03-19T10:48:25.156Z,102344.51
2019-03-19T10:53:22.383Z,102338.83
2019-03-19T10:55:53.351Z,102345.55
2019-03-19T10:58:22.724Z,102341.97
2019-03-19T11:00:52.096Z,102339.77
2019-03-19T11:03:21.463Z,102347.19
2019-03-19T11:05:50.829Z,102345.44
2019-03-19T11:08:20.195Z,102346.62
2019-03-19T11:10:49.564Z,102346.92
2019-03-19T11:13:19.163Z,102345.55
2019-03-19T11:15:48.536Z,102344.89
2019-03-19T11:18:17.917Z,102349.39
2019-03-19T11:20:47.548Z,102359.50
2019-03-19T11:23:16.919Z,102353.20
2019-03-19T11:25:54.190Z,102350.96
2019-03-19T11:28:22.802Z,102346.73
2019-03-19T11:30:52.151Z,102356.77
2019-03-19T11:33:21.529Z,102354.55
2019-03-19T11:35:50.883Z,102362.31
2019-03-19T11:38:20.258Z,102366.91
2019-03-19T11:40:49.611Z,102367.25
2019-03-19T11:43:18.983Z,102361.73
2019-03-19T11:45:48.327Z,102357.20
2019-03-19T11:48:17.706Z,102363.70
2019-03-19T11:50:47.048Z,102353.66
2019-03-19T11:53:16.423Z,102358.41
2019-03-19T11:55:45.778Z,102362.86
2019-03-19T11:58:15.143Z,102358.80
2019-03-19T12:01:03.647Z,102355.23
2019-03-19T12:03:33.011Z,102358.30
2019-03-19T12:06:02.645Z,102358.91
2019-03-19T12:08:32.008Z,102356.73
2019-03-19T12:11:01.371Z,102362.56
2019-03-19T12:13:30.731Z,102357.97
2019-03-19T12:16:00.101Z,102354.70
2019-03-19T12:18:29.475Z,102349.23
2019-03-19T12:20:59.141Z,102350.77
2019-03-19T12:23:48.131Z,102350.33
2019-03-19T12:26:17.494Z,102359.95
2019-03-19T12:31:54.457Z,102352.78
2019-03-19T12:34:23.815Z,102351.67
2019-03-19T12:36:53.185Z,102359.55
2019-03-19T12:39:22.550Z,102351.35
2019-03-19T12:42:04.154Z,102365.25
2019-03-19T12:44:33.521Z,102364.06
2019-03-19T12:47:02.890Z,102366.95
2019-03-19T12:49:32.245Z,102364.77
2019-03-19T12:52:01.613Z,102366.32
2019-03-19T12:54:30.962Z,102363.39
2019-03-19T12:57:00.328Z,102374.20
2019-03-19T12:59:29.682Z,102375.97
2019-03-19T13:01:59.060Z,102372.42
2019-03-19T13:04:28.420Z,102358.28
2019-03-19T13:06:57.823Z,102366.20
2019-03-19T13:09:27.158Z,102366.49
2019-03-19T13:11:56.518Z,102364.15
2019-03-19T13:14:25.899Z,102359.90
2019-03-19T13:16:56.890Z,102365.43
2019-03-19T13:19:26.263Z,102367.84
2019-03-19T13:21:55.632Z,102358.61
2019-03-19T13:24:24.999Z,102351.31
2019-03-19T13:26:54.608Z,102350.27
2019-03-19T13:29:23.958Z,102353.52
2019-03-19T13:31:53.331Z,102349.25
2019-03-19T13:34:24.301Z,102348.09
2019-03-19T13:36:53.667Z,102343.60
2019-03-19T13:39:23.036Z,102346.52
2019-03-19T13:41:52.391Z,102348.57
2019-03-19T13:44:22.067Z,102355.73
2019-03-19T13:46:51.422Z,102354.27
2019-03-19T13:49:20.790Z,102360.14
2019-03-19T13:51:50.146Z,102359.70
2019-03-19T13:54:19.834Z,102356.79
2019-03-19T13:56:49.147Z,102366.27
2019-03-19T13:59:18.527Z,102365.45
2019-03-19T14:01:48.119Z,102363.45
2019-03-19T14:04:17.500Z,102363.89
2019-03-19T14:06:47.209Z,102363.80
2019-03-19T14:09:16.609Z,102368.00
2019-03-19T14:11:45.935Z,102371.04
2019-03-19T14:14:15.303Z,102371.98
2019-03-19T14:16:44.943Z,102359.70
2019-03-19T14:19:14.304Z,102370.23
2019-03-19T14:21:43.654Z,102362.97
2019-03-19T14:24:13.025Z,102375.42
2019-03-19T14:26:42.378Z,102377.97
2019-03-19T14:29:11.745Z,102376.84
2019-03-19T14:31:41.104Z,102367.12
2019-03-19T14:34:10.450Z,102370.59
2019-03-19T14:36:39.826Z,102374.47
2019-03-19T14:39:10.796Z,102376.42
2019-03-19T14:41:40.166Z,102375.64
2019-03-19T14:44:09.530Z,102370.94
2019-03-19T14:46:38.885Z,102373.95
2019-03-19T14:49:08.260Z,102378.49
2019-03-19T14:51:39.236Z,102386.91
2019-03-19T14:54:10.557Z,102397.33
2019-03-19T14:56:49.114Z,102390.69
2019-03-19T14:59:18.478Z,102398.20
2019-03-19T15:01:47.849Z,102391.50
2019-03-19T15:04:17.220Z,102390.73
2019-03-19T15:06:46.581Z,102391.59
2019-03-19T15:09:15.954Z,102388.12
2019-03-19T15:11:45.325Z,102386.30
2019-03-19T15:14:14.682Z,102389.03
2019-03-19T15:16:44.118Z,102386.94
2019-03-19T15:19:13.485Z,102379.82
2019-03-19T15:21:42.864Z,102391.63
2019-03-19T15:24:12.223Z,102389.86
2019-03-19T15:26:41.581Z,102395.04
2019-03-19T15:29:12.562Z,102388.22
2019-03-19T15:31:41.938Z,102397.55
2019-03-19T15:34:11.288Z,102391.80
2019-03-19T15:36:40.663Z,102409.61
2019-03-19T15:39:11.646Z,102400.53
2019-03-19T15:41:40.999Z,102399.99
2019-03-19T15:44:10.374Z,102396.16
2019-03-19T15:46:39.722Z,102403.25
2019-03-19T15:49:09.456Z,102398.36
2019-03-19T15:51:38.813Z,102396.49
2019-03-19T15:54:08.182Z,102396.11
2019-03-19T15:56:37.865Z,102396.63
2019-03-19T15:59:07.245Z,102405.53
2019-03-19T16:01:40.391Z,102403.72
2019-03-19T16:04:13.193Z,102404.95
2019-03-19T16:06:42.549Z,102406.59
2019-03-19T16:09:13.531Z,102397.48
2019-03-19T16:11:42.878Z,102398.44
2019-03-19T16:14:12.618Z,102408.89
2019-03-19T16:16:42.312Z,102413.98
2019-03-19T16:19:11.691Z,102413.86
2019-03-19T16:21:41.040Z,102418.83
2019-03-19T16:24:10.412Z,102418.95
2019-03-19T16:26:39.780Z,102415.63
2019-03-19T16:29:09.144Z,102414.88
2019-03-19T16:31:38.495Z,102418.86
2019-03-19T16:34:07.875Z,102418.70
2019-03-19T16:36:37.226Z,102419.91
2019-03-19T16:39:46.631Z,102423.96
2019-03-19T16:42:16.285Z,102428.11
2019-03-19T16:44:45.650Z,102422.31
2019-03-19T16:47:15.297Z,102423.77
2019-03-19T16:49:44.666Z,102436.17
2019-03-19T16:52:14.019Z,102439.69
2019-03-19T16:54:43.387Z,102440.78
2019-03-19T16:57:12.733Z,102442.24
2019-03-19T16:59:43.730Z,102442.74
2019-03-19T17:02:13.089Z,102444.03
2019-03-19T17:04:42.445Z,102440.23
2019-03-19T17:07:13.438Z,102442.38
2019-03-19T17:09:44.747Z,102452.74
2019-03-19T17:12:14.411Z,102453.37
2019-03-19T17:14:44.097Z,102452.91
2019-03-19T17:17:13.482Z,102461.00
2019-03-19T17:19:43.137Z,102457.19
2019-03-19T17:22:12.495Z,102461.97
2019-03-19T17:25:01.512Z,102464.13
2019-03-19T17:27:31.107Z,102464.13
2019-03-19T17:30:02.117Z,102463.59
2019-03-19T17:32:33.240Z,102476.80
2019-03-19T17:35:02.613Z,102467.69
2019-03-19T17:37:32.081Z,102471.10
2019-03-19T17:42:55.371Z,102472.95
2019-03-19T17:45:25.141Z,102483.10
2019-03-19T17:47:54.814Z,102477.08
2019-03-19T17:53:26.226Z,102480.94
2019-03-19T17:55:55.601Z,102481.84
2019-03-19T17:58:25.262Z,102483.49
2019-03-19T18:03:34.187Z,102481.00
2019-03-19T18:06:03.570Z,102481.97
2019-03-19T18:08:33.224Z,102482.20
2019-03-19T18:11:02.902Z,102485.20
2019-03-19T18:13:32.265Z,102487.45
2019-03-19T18:16:01.638Z,102496.42
2019-03-19T18:18:31.539Z,102497.08
2019-03-19T18:21:01.152Z,102500.41
2019-03-19T18:23:30.507Z,102499.21
2019-03-19T18:25:59.882Z,102504.45
2019-03-19T18:28:29.551Z,102503.98
2019-03-19T18:31:11.991Z,102509.92
2019-03-19T18:33:41.641Z,102509.92
2019-03-19T18:36:11.191Z,102504.41
2019-03-19T18:38:40.714Z,102504.41
2019-03-19T18:41:10.417Z,102514.27
2019-03-19T18:43:40.937Z,102514.27
2019-03-19T18:46:10.290Z,102525.93
2019-03-19T18:48:40.646Z,102521.75
2019-03-19T18:51:10.508Z,102524.27
2019-03-19T18:53:40.626Z,102524.59
2019-03-19T18:56:10.513Z,102520.97
2019-03-19T18:58:40.743Z,102532.53
2019-03-19T19:01:29.992Z,102537.22
2019-03-19T19:03:59.359Z,102537.22
2019-03-19T19:06:30.343Z,102543.03
2019-03-19T19:08:59.716Z,102543.61
2019-03-19T19:11:34.442Z,102552.41
2019-03-19T19:14:03.805Z,102554.41
2019-03-19T19:16:52.762Z,102563.48
2019-03-19T19:19:22.386Z,102563.48
2019-03-19T19:21:53.662Z,102567.07
2019-03-19T19:24:23.319Z,102578.81
2019-03-19T19:26:52.691Z,102577.85
2019-03-19T19:29:35.180Z,102583.03
2019-03-19T19:32:04.542Z,102583.03
2019-03-19T19:34:33.907Z,102595.24
2019-03-19T19:37:16.426Z,102583.28
2019-03-19T19:39:46.445Z,102583.28
2019-03-19T19:42:15.816Z,102588.31
2019-03-19T19:44:45.471Z,102585.16
2019-03-19T19:47:14.843Z,102591.27
2019-03-19T19:49:44.664Z,102595.87
2019-03-19T19:52:14.013Z,102607.98
2019-03-19T19:54:45.003Z,102596.50
2019-03-19T19:57:26.119Z,102598.03
2019-03-19T19:59:55.689Z,102597.76
2019-03-19T20:02:25.353Z,102595.66
2019-03-19T20:05:02.916Z,102596.64
2019-03-19T20:07:45.215Z,102601.62
2019-03-19T20:13:16.936Z,102612.66
2019-03-19T20:15:46.594Z,102617.28
2019-03-19T20:18:15.948Z,102614.31
2019-03-19T20:20:45.611Z,102617.48
2019-03-19T20:23:14.978Z,102624.73
2019-03-19T20:25:44.817Z,102628.81
2019-03-19T20:28:14.214Z,102637.73
2019-03-19T20:30:43.583Z,102631.96
2019-03-19T20:33:24.211Z,102632.03
2019-03-19T20:36:03.432Z,102633.50
2019-03-19T20:38:32.812Z,102641.62
2019-03-19T20:41:04.332Z,102642.67
2019-03-19T20:43:33.699Z,102642.38
2019-03-19T20:48:43.257Z,102641.09
2019-03-19T20:51:12.606Z,102639.83
2019-03-19T20:53:42.244Z,102636.68
2019-03-19T20:56:11.680Z,102631.44
2019-03-19T20:58:43.749Z,102642.56
2019-03-19T21:01:17.681Z,102643.47
2019-03-19T21:03:49.371Z,102643.05
2019-03-19T21:06:18.774Z,102657.79
2019-03-19T21:08:48.384Z,102661.75
2019-03-19T21:11:17.805Z,102660.41
2019-03-19T21:13:47.149Z,102661.25
2019-03-19T21:16:16.672Z,102678.09
2019-03-19T21:18:46.025Z,102671.89
2019-03-19T21:21:27.768Z,102679.86
2019-03-19T21:23:57.406Z,102679.86
2019-03-19T21:26:26.806Z,102688.77
2019-03-19T21:28:56.162Z,102685.31
2019-03-19T21:31:26.069Z,102683.66
2019-03-19T21:33:55.718Z,102682.45
2019-03-19T21:36:25.100Z,102678.08
2019-03-19T21:38:54.769Z,102675.08
2019-03-19T21:41:24.122Z,102673.39
2019-03-19T21:43:53.808Z,102677.50
2019-03-19T21:46:23.152Z,102671.30
2019-03-19T21:48:52.811Z,102680.28
2019-03-19T21:51:22.171Z,102681.23
2019-03-19T21:53:51.844Z,102676.02
2019-03-19T21:56:21.208Z,102671.19
2019-03-19T21:58:50.813Z,102678.44
2019-03-19T22:01:21.778Z,102678.61
2019-03-19T22:04:02.698Z,102668.67
2019-03-19T22:06:32.959Z,102659.45
2019-03-19T22:12:04.768Z,102649.50
2019-03-19T22:14:34.128Z,102652.23
2019-03-19T22:17:16.639Z,102654.23
2019-03-19T22:19:46.086Z,102654.23
2019-03-19T22:22:15.781Z,102656.91
2019-03-19T22:24:45.199Z,102655.91
2019-03-19T22:27:14.849Z,102656.66
2019-03-19T22:29:44.482Z,102659.55
2019-03-19T22:32:13.924Z,102659.55
2019-03-19T22:34:43.291Z,102658.09
2019-03-19T22:37:13.128Z,102670.34
2019-03-19T22:42:31.224Z,102669.25
2019-03-19T22:45:00.743Z,102658.95
2019-03-19T22:47:31.988Z,102664.30
2019-03-19T22:50:01.349Z,102661.30
2019-03-19T22:52:30.974Z,102661.35
2019-03-19T22:55:00.418Z,102664.84
2019-03-19T22:57:29.857Z,102671.03
2019-03-19T22:59:59.207Z,102663.48
2019-03-19T23:02:28.943Z,102662.11
2019-03-19T23:05:00.423Z,102663.93
2019-03-19T23:07:29.993Z,102665.31
2019-03-19T23:09:59.344Z,102668.52
2019-03-19T23:12:28.848Z,102673.42
2019-03-19T23:14:58.486Z,102674.29
2019-03-19T23:17:28.005Z,102676.47
2019-03-19T23:19:57.557Z,102671.14
2019-03-19T23:22:33.903Z,102671.13
2019-03-19T23:25:14.553Z,102677.37
2019-03-19T23:27:44.187Z,102673.53
2019-03-19T23:33:15.893Z,102671.88
2019-03-19T23:35:45.290Z,102671.27
2019-03-19T23:38:14.960Z,102673.67
2019-03-19T23:40:44.322Z,102671.59
2019-03-19T23:43:33.287Z,102668.12
2019-03-19T23:46:02.937Z,102678.88
2019-03-19T23:48:32.306Z,102681.64
2019-03-19T23:51:01.888Z,102677.22
2019-03-19T23:53:31.245Z,102685.36
2019-03-19T23:56:01.202Z,102686.27
2019-03-19T23:58:31.231Z,102692.41
